Time;durP1;ratioP1;P1;durP2;ratioP2;P2;SDS_P1;SDS_P2;PMS_P1;PMS_P2;Temp;Humidity;BMP_temperature;BMP_pressure;BME280_temperature;BME280_humidity;BME280_pressure;Samples;Min_cycle;Max_cycle;Signal;HPM_P1;HPM_P2
2021/11/02 00:00:43;;;;;;;9.07;5.50;;;7.90;99.90;;;;;;5032043;28;20564;-54
2021/11/02 00:03:08;;;;;;;10.38;5.72;;;7.80;99.90;;;;;;5020957;28;20042;-55
2021/11/02 00:05:35;;;;;;;9.43;5.43;;;7.80;99.90;;;;;;5009073;28;20133;-52
2021/11/02 00:08:01;;;;;;;9.13;5.78;;;7.80;99.90;;;;;;5022296;28;20125;-55
2021/11/02 00:10:28;;;;;;;14.52;5.90;;;7.80;99.90;;;;;;5020227;28;20458;-53
2021/11/02 00:12:55;;;;;;;12.40;5.95;;;7.70;99.90;;;;;;5009861;28;20029;-53
2021/11/02 00:15:22;;;;;;;10.38;6.20;;;7.80;99.90;;;;;;5025150;28;20041;-53
2021/11/02 00:17:50;;;;;;;9.45;6.07;;;7.70;99.90;;;;;;5030311;28;20053;-55
2021/11/02 00:20:16;;;;;;;13.00;6.07;;;7.70;99.90;;;;;;5009860;28;20077;-54
2021/11/02 00:22:51;;;;;;;12.32;6.80;;;7.70;99.90;;;;;;5029687;28;20041;-53
2021/11/02 00:25:17;;;;;;;12.75;6.93;;;7.70;99.90;;;;;;5027791;28;20450;-52
2021/11/02 00:27:43;;;;;;;11.20;6.38;;;7.70;99.90;;;;;;5028548;28;20080;-53
2021/11/02 00:30:12;;;;;;;12.30;6.45;;;7.70;99.90;;;;;;5031903;28;20076;-53
2021/11/02 00:32:38;;;;;;;13.38;6.15;;;7.70;99.90;;;;;;5025742;28;20149;-54
2021/11/02 00:35:06;;;;;;;12.38;6.78;;;7.60;99.90;;;;;;5024735;28;20033;-55
2021/11/02 00:37:32;;;;;;;10.93;7.00;;;7.70;99.90;;;;;;5027405;28;20042;-54
2021/11/02 00:39:58;;;;;;;12.25;6.75;;;7.60;99.90;;;;;;5025299;28;20421;-55
2021/11/02 00:42:27;;;;;;;12.85;7.00;;;7.60;99.90;;;;;;5028056;28;20068;-51
2021/11/02 00:44:56;;;;;;;12.75;6.82;;;7.60;99.90;;;;;;5032852;28;20511;-53
2021/11/02 00:47:25;;;;;;;12.40;7.15;;;7.60;99.90;;;;;;5032062;28;20045;-52
2021/11/02 00:49:50;;;;;;;12.15;7.20;;;7.50;99.90;;;;;;5031356;28;20041;-51
2021/11/02 00:52:16;;;;;;;11.77;6.78;;;7.50;99.90;;;;;;5032125;28;20045;-54
2021/11/02 00:54:42;;;;;;;15.57;7.75;;;7.50;99.90;;;;;;5032209;28;20389;-55
2021/11/02 00:57:07;;;;;;;15.68;7.40;;;7.50;99.90;;;;;;5031898;28;20040;-55
2021/11/02 00:59:33;;;;;;;14.20;7.55;;;7.50;99.90;;;;;;5031258;28;20037;-52
2021/11/02 01:01:58;;;;;;;12.30;7.45;;;7.50;99.90;;;;;;5013130;28;20038;-53
2021/11/02 01:04:24;;;;;;;12.98;7.30;;;7.50;99.90;;;;;;5031036;28;20042;-54
2021/11/02 01:06:50;;;;;;;13.05;7.78;;;7.50;99.90;;;;;;5027212;28;20041;-54
2021/11/02 01:09:17;;;;;;;15.00;7.78;;;7.50;99.90;;;;;;5032116;28;20034;-54
2021/11/02 01:11:44;;;;;;;11.63;7.15;;;7.40;99.90;;;;;;4981224;28;20038;-51
2021/11/02 01:14:10;;;;;;;14.15;8.25;;;7.40;99.90;;;;;;5032109;28;20044;-54
2021/11/02 01:16:36;;;;;;;13.75;6.97;;;7.50;99.90;;;;;;5037271;22;20037;-53
2021/11/02 01:19:02;;;;;;;12.38;6.93;;;7.40;99.90;;;;;;5009200;28;20092;-54
2021/11/02 01:21:27;;;;;;;14.02;7.30;;;7.40;99.90;;;;;;5015035;28;20053;-55
2021/11/02 01:23:53;;;;;;;13.25;7.38;;;7.40;99.90;;;;;;5010828;28;20037;-55
2021/11/02 01:26:18;;;;;;;11.07;7.32;;;7.40;99.90;;;;;;5014915;28;20053;-55
2021/11/02 01:28:44;;;;;;;13.43;7.22;;;7.50;99.90;;;;;;5011496;28;20519;-51
2021/11/02 01:31:10;;;;;;;10.52;6.93;;;7.40;99.90;;;;;;5016026;28;20037;-55
2021/11/02 01:33:36;;;;;;;14.02;7.00;;;7.40;99.90;;;;;;4981725;28;20038;-54
2021/11/02 01:36:03;;;;;;;12.10;7.30;;;7.40;99.90;;;;;;5013970;28;20411;-53
2021/11/02 01:38:29;;;;;;;11.70;7.30;;;7.40;99.90;;;;;;4996871;28;20434;-52
2021/11/02 01:40:56;;;;;;;12.50;7.15;;;7.30;99.90;;;;;;5013716;28;20045;-52
2021/11/02 01:43:23;;;;;;;12.55;6.88;;;7.40;99.90;;;;;;5011963;28;20502;-53
2021/11/02 01:45:49;;;;;;;15.68;7.13;;;7.40;99.90;;;;;;5013983;28;20041;-54
2021/11/02 01:48:23;;;;;;;12.98;7.30;;;7.30;99.90;;;;;;5014513;28;20104;-54
2021/11/02 01:50:49;;;;;;;11.77;7.03;;;7.30;99.90;;;;;;4994674;28;20038;-55
2021/11/02 01:53:16;;;;;;;12.05;7.35;;;7.30;99.90;;;;;;5015081;28;20096;-52
2021/11/02 01:55:42;;;;;;;14.85;6.88;;;7.20;99.90;;;;;;5011987;28;20481;-51
2021/11/02 01:58:11;;;;;;;9.70;6.30;;;7.20;99.90;;;;;;5014752;28;20045;-54
2021/11/02 02:00:37;;;;;;;12.23;7.03;;;7.20;99.90;;;;;;5011828;28;20042;-53
2021/11/02 02:03:32;;;;;;;16.63;7.03;;;7.20;99.90;;;;;;5013370;28;20088;-53
2021/11/02 02:06:11;;;;;;;12.60;6.57;;;7.10;99.90;;;;;;5022987;28;20045;-52
2021/11/02 02:09:06;;;;;;;11.38;6.47;;;7.10;99.90;;;;;;5014604;28;20042;-51
2021/11/02 02:11:55;;;;;;;11.52;6.30;;;7.10;99.90;;;;;;5013398;28;20048;-53
2021/11/02 02:14:50;;;;;;;11.25;7.03;;;7.10;99.90;;;;;;5013314;28;20053;-52
2021/11/02 02:17:20;;;;;;;13.75;6.70;;;7.10;99.90;;;;;;4991857;28;20049;-52
2021/11/02 02:19:52;;;;;;;13.68;6.90;;;7.10;99.90;;;;;;5011576;28;20049;-53
2021/11/02 02:22:41;;;;;;;13.52;7.40;;;7.00;99.90;;;;;;5014453;28;20121;-51
2021/11/02 02:25:33;;;;;;;12.75;6.43;;;7.00;99.90;;;;;;5012653;28;20037;-52
2021/11/02 02:28:19;;;;;;;11.50;6.60;;;7.00;99.90;;;;;;5004888;28;20050;-54
2021/11/02 02:30:52;;;;;;;16.50;7.30;;;7.50;99.90;;;;;;4994603;28;20038;-51
2021/11/02 02:33:22;;;;;;;14.38;6.75;;;7.00;99.90;;;;;;5007879;28;20112;-51
2021/11/02 02:35:49;;;;;;;16.25;7.30;;;7.00;99.90;;;;;;5013332;28;20387;-52
2021/11/02 02:38:18;;;;;;;13.32;7.13;;;7.00;99.90;;;;;;5013516;28;20505;-51
2021/11/02 02:40:46;;;;;;;11.73;6.72;;;6.90;99.90;;;;;;5010649;28;20080;-54
2021/11/02 02:43:12;;;;;;;14.20;7.07;;;7.10;99.90;;;;;;5013455;28;20056;-53
2021/11/02 02:45:40;;;;;;;12.93;7.13;;;7.00;99.90;;;;;;5010997;28;20042;-53
2021/11/02 02:48:06;;;;;;;12.80;7.20;;;7.00;99.90;;;;;;5007546;28;20057;-51
2021/11/02 02:50:33;;;;;;;13.52;6.88;;;7.00;99.90;;;;;;5013284;28;20045;-51
2021/11/02 02:53:01;;;;;;;13.52;7.57;;;7.00;99.90;;;;;;5013241;28;20074;-54
2021/11/02 02:55:30;;;;;;;14.52;7.38;;;7.00;99.90;;;;;;5013151;28;20066;-55
2021/11/02 02:57:56;;;;;;;12.95;6.72;;;7.00;99.90;;;;;;5010844;28;20030;-52
2021/11/02 03:00:22;;;;;;;16.10;7.43;;;7.00;99.90;;;;;;5013336;28;20119;-53
2021/11/02 03:02:50;;;;;;;14.15;7.40;;;7.00;99.90;;;;;;5010309;28;20088;-53
2021/11/02 03:05:18;;;;;;;13.98;6.97;;;7.00;99.90;;;;;;5011925;28;20046;-50
2021/11/02 03:07:43;;;;;;;15.30;7.15;;;7.00;99.90;;;;;;5012608;28;20034;-52
2021/11/02 03:10:10;;;;;;;13.35;7.55;;;7.00;99.90;;;;;;5006184;28;20089;-51
2021/11/02 03:12:40;;;;;;;16.20;7.40;;;7.00;99.90;;;;;;5004300;28;20030;-51
2021/11/02 03:44:31;;;;;;;15.98;7.15;;;6.60;99.90;;;;;;5031602;28;20052;-49
2021/11/02 03:51:47;;;;;;;13.57;7.20;;;6.60;99.90;;;;;;5028388;28;20466;-50
2021/11/02 03:57:25;;;;;;;14.10;7.90;;;6.50;99.90;;;;;;5025693;28;20053;-49
2021/11/02 04:00:19;;;;;;;12.57;7.28;;;6.50;99.90;;;;;;5031326;28;20038;-52
2021/11/02 04:25:14;;;;;;;16.83;8.43;;;6.40;99.90;;;;;;5025822;28;20123;-50
2021/11/02 04:36:50;;;;;;;13.48;8.30;;;6.30;99.90;;;;;;5030736;28;20049;-50
2021/11/02 04:42:38;;;;;;;17.05;8.57;;;6.40;99.90;;;;;;5029441;28;20038;-50
2021/11/02 04:47:21;;;;;;;16.35;8.82;;;6.30;99.90;;;;;;5030776;28;20049;-49
2021/11/02 05:50:04;;;;;;;18.88;8.43;;;6.30;99.90;;;;;;5029174;28;20045;-49
2021/11/02 06:00:51;;;;;;;18.00;9.98;;;6.20;99.90;;;;;;5011060;28;20373;-51
2021/11/02 06:28:17;;;;;;;14.25;8.55;;;6.20;99.90;;;;;;5032120;28;20045;-51
2021/11/02 06:30:47;;;;;;;15.90;8.30;;;6.30;99.90;;;;;;5028355;28;20041;-51
2021/11/02 06:44:21;;;;;;;14.35;8.20;;;6.40;99.90;;;;;;5031527;28;20071;-48
2021/11/02 06:50:19;;;;;;;15.07;8.15;;;6.30;99.90;;;;;;5012584;28;20128;-52
2021/11/02 07:10:57;;;;;;;13.98;8.10;;;6.30;99.90;;;;;;5011047;28;20575;-50
2021/11/02 07:15:35;;;;;;;14.48;7.95;;;6.40;99.90;;;;;;5029541;28;20061;-53
2021/11/02 07:20:34;;;;;;;18.67;8.32;;;6.30;99.90;;;;;;5030226;28;20414;-51
2021/11/02 07:26:16;;;;;;;18.60;9.33;;;6.30;99.90;;;;;;5015196;28;20136;-52
2021/11/02 08:47:10;;;;;;;12.68;7.57;;;7.30;99.90;;;;;;5024743;28;20053;-54
2021/11/02 08:49:43;;;;;;;13.48;7.85;;;7.40;99.90;;;;;;5032440;28;20048;-54
2021/11/02 08:52:08;;;;;;;12.15;7.80;;;7.50;99.90;;;;;;5030560;28;20413;-55
2021/11/02 08:54:36;;;;;;;12.60;8.00;;;7.50;99.90;;;;;;5030501;28;20033;-55
2021/11/02 08:57:02;;;;;;;11.75;7.40;;;7.60;99.90;;;;;;5022158;28;20041;-48
2021/11/02 08:59:33;;;;;;;15.57;7.90;;;7.60;99.90;;;;;;5025477;28;20033;-51
2021/11/02 09:01:59;;;;;;;13.07;7.32;;;7.70;99.90;;;;;;5024330;28;20482;-53
2021/11/02 09:04:52;;;;;;;14.82;7.57;;;7.70;99.90;;;;;;5034158;28;20041;-53
2021/11/02 09:07:26;;;;;;;11.27;7.78;;;7.80;99.90;;;;;;5004210;28;20057;-48
2021/11/02 09:09:55;;;;;;;16.35;8.15;;;7.90;99.90;;;;;;5028732;28;20037;-48
2021/11/02 09:12:27;;;;;;;10.25;7.30;;;7.90;99.90;;;;;;5031569;28;20041;-50
2021/11/02 09:14:54;;;;;;;14.63;8.30;;;7.90;99.90;;;;;;5027977;28;20029;-52
2021/11/02 09:17:21;;;;;;;16.05;8.02;;;7.90;99.90;;;;;;5025016;28;20129;-49
2021/11/02 09:19:48;;;;;;;13.32;8.05;;;8.00;99.90;;;;;;5027606;28;20564;-52
2021/11/02 09:22:15;;;;;;;13.32;7.65;;;8.10;99.90;;;;;;5030580;28;20037;-48
2021/11/02 09:24:44;;;;;;;12.93;8.00;;;8.10;99.90;;;;;;5037052;28;20445;-51
2021/11/02 09:27:13;;;;;;;15.95;7.95;;;8.20;99.90;;;;;;5032787;28;20038;-51
2021/11/02 09:29:39;;;;;;;13.32;8.15;;;8.30;99.90;;;;;;5001265;28;20128;-50
2021/11/02 09:32:08;;;;;;;11.63;8.38;;;8.30;99.90;;;;;;5033333;28;20088;-52
2021/11/02 09:34:35;;;;;;;11.95;8.45;;;8.40;99.90;;;;;;5012513;22;20101;-50
2021/11/02 09:37:17;;;;;;;13.30;8.95;;;8.40;99.90;;;;;;4990920;28;20027;-48
2021/11/02 09:39:48;;;;;;;17.40;8.77;;;8.50;99.90;;;;;;4991229;28;20034;-49
2021/11/02 09:42:36;;;;;;;14.23;9.82;;;8.60;99.90;;;;;;4994410;28;20042;-47
2021/11/02 09:45:06;;;;;;;13.68;10.07;;;8.70;99.90;;;;;;4969115;28;20031;-48
2021/11/02 09:47:43;;;;;;;18.38;9.60;;;8.70;99.90;;;;;;4978140;28;20042;-49
2021/11/02 09:50:43;;;;;;;13.88;9.23;;;8.80;99.90;;;;;;4976613;28;20041;-50
2021/11/02 09:53:26;;;;;;;14.55;9.70;;;8.80;99.90;;;;;;4976213;28;20129;-50
2021/11/02 09:56:01;;;;;;;15.55;9.73;;;8.90;99.90;;;;;;4975237;28;20031;-48
2021/11/02 09:58:42;;;;;;;17.45;9.43;;;9.00;99.90;;;;;;4974817;28;20066;-51
2021/11/02 10:01:32;;;;;;;12.77;9.60;;;9.00;99.90;;;;;;4975131;28;20377;-48
2021/11/02 10:04:21;;;;;;;13.60;9.43;;;9.10;99.90;;;;;;4967904;28;20038;-48
2021/11/02 10:07:19;;;;;;;13.90;9.77;;;9.10;99.90;;;;;;4970849;28;20054;-48
2021/11/02 10:09:56;;;;;;;15.38;10.02;;;9.10;99.90;;;;;;4974275;28;20050;-49
2021/11/02 10:12:27;;;;;;;15.10;9.13;;;9.10;99.90;;;;;;4971133;28;20117;-47
2021/11/02 10:15:10;;;;;;;17.33;9.93;;;9.10;99.90;;;;;;4974196;28;20043;-50
2021/11/02 10:18:05;;;;;;;15.80;9.93;;;9.20;99.90;;;;;;4973044;28;20049;-48
2021/11/02 10:20:56;;;;;;;12.88;9.60;;;9.20;99.90;;;;;;4978190;28;20411;-47
2021/11/02 10:23:38;;;;;;;17.52;10.40;;;9.30;99.90;;;;;;4978826;28;20049;-48
2021/11/02 10:26:25;;;;;;;16.02;9.75;;;9.30;99.90;;;;;;4971821;28;20043;-48
2021/11/02 10:29:17;;;;;;;15.98;8.73;;;9.40;99.90;;;;;;4973317;28;20089;-48
2021/11/02 10:32:06;;;;;;;14.67;9.77;;;9.50;99.90;;;;;;4961583;28;20090;-49
2021/11/02 10:34:58;;;;;;;15.73;9.38;;;9.50;99.90;;;;;;4973304;28;20372;-48
2021/11/02 10:38:04;;;;;;;14.20;8.95;;;9.60;99.90;;;;;;4969406;28;20101;-48
2021/11/02 10:40:40;;;;;;;14.25;9.30;;;9.50;99.90;;;;;;4969421;28;20094;-48
2021/11/02 10:43:41;;;;;;;15.27;9.55;;;9.50;99.90;;;;;;4973812;28;20399;-48
2021/11/02 10:46:13;;;;;;;15.85;9.88;;;9.50;99.90;;;;;;4973308;28;20042;-49
2021/11/02 10:48:49;;;;;;;16.60;10.05;;;9.50;99.90;;;;;;4972422;28;20039;-52
2021/11/02 10:51:34;;;;;;;12.80;9.65;;;9.50;99.90;;;;;;4973105;28;20403;-49
2021/11/02 10:54:05;;;;;;;13.75;9.40;;;9.50;99.90;;;;;;4968795;28;20039;-52
2021/11/02 10:56:36;;;;;;;13.77;9.70;;;9.50;99.90;;;;;;4974090;28;20039;-50
2021/11/02 10:59:10;;;;;;;16.40;9.48;;;9.50;99.90;;;;;;4975794;28;20046;-50
2021/11/02 11:01:37;;;;;;;14.20;9.27;;;9.50;99.90;;;;;;4973974;28;20093;-49
2021/11/02 11:04:04;;;;;;;14.40;9.63;;;9.50;99.90;;;;;;4974042;28;20494;-52
2021/11/02 11:06:35;;;;;;;12.48;8.70;;;9.50;99.90;;;;;;4977177;28;20049;-52
2021/11/02 11:09:01;;;;;;;13.18;8.93;;;9.50;99.90;;;;;;4973866;28;20035;-50
2021/11/02 11:11:31;;;;;;;18.63;8.63;;;9.50;99.90;;;;;;4973474;28;20498;-49
2021/11/02 11:14:08;;;;;;;12.05;8.68;;;9.50;99.90;;;;;;4972657;28;20051;-52
2021/11/02 11:16:36;;;;;;;12.07;8.30;;;9.50;99.90;;;;;;4979002;28;20545;-48
2021/11/02 11:19:33;;;;;;;12.90;8.52;;;9.40;99.90;;;;;;4959637;28;20070;-51
2021/11/02 11:22:00;;;;;;;18.17;11.75;;;9.40;99.90;;;;;;4959255;28;20051;-52
2021/11/02 11:24:52;;;;;;;13.93;7.85;;;9.40;99.90;;;;;;4956389;28;20042;-51
2021/11/02 11:27:18;;;;;;;14.93;9.30;;;9.40;99.90;;;;;;4952669;28;20055;-49
2021/11/02 11:29:50;;;;;;;13.38;9.00;;;9.40;99.90;;;;;;4973600;28;20093;-49
2021/11/02 11:32:17;;;;;;;12.00;8.77;;;9.40;99.90;;;;;;4967653;28;20411;-49
2021/11/02 11:34:51;;;;;;;12.40;8.93;;;9.40;99.90;;;;;;4972176;28;20042;-49
2021/11/02 11:37:21;;;;;;;15.20;8.77;;;9.40;99.90;;;;;;4963578;28;20119;-53
2021/11/02 11:39:49;;;;;;;14.05;8.90;;;9.40;99.90;;;;;;4969841;28;20154;-51
2021/11/02 11:42:18;;;;;;;13.20;8.60;;;9.50;99.90;;;;;;4970089;28;20069;-48
2021/11/02 11:44:49;;;;;;;12.70;8.63;;;9.50;99.90;;;;;;4969066;28;20410;-53
2021/11/02 11:47:25;;;;;;;14.85;8.95;;;9.50;99.90;;;;;;4964365;28;20047;-53
2021/11/02 11:49:52;;;;;;;16.75;9.82;;;9.50;99.90;;;;;;4969636;28;20399;-48
2021/11/02 11:52:22;;;;;;;13.85;8.68;;;9.60;99.90;;;;;;4973082;28;20079;-51
2021/11/02 11:54:54;;;;;;;13.82;8.80;;;9.60;99.90;;;;;;4971515;28;20042;-50
2021/11/02 11:57:32;;;;;;;12.77;8.93;;;9.70;99.90;;;;;;4966858;28;20039;-51
2021/11/02 12:00:03;;;;;;;12.68;8.77;;;9.70;99.90;;;;;;4968809;28;20173;-53
2021/11/02 12:02:46;;;;;;;15.57;8.65;;;9.70;99.90;;;;;;4967274;28;20038;-52
2021/11/02 12:05:17;;;;;;;16.33;9.40;;;9.80;99.90;;;;;;4972550;28;20098;-51
2021/11/02 12:08:07;;;;;;;13.35;7.95;;;9.80;99.90;;;;;;4972813;28;20073;-52
2021/11/02 12:10:34;;;;;;;13.30;8.68;;;9.80;99.90;;;;;;4970787;28;20503;-49
2021/11/02 12:13:07;;;;;;;14.50;8.25;;;9.80;99.90;;;;;;4975652;28;20070;-52
2021/11/02 12:16:10;;;;;;;13.50;8.45;;;9.90;99.90;;;;;;4973625;28;20034;-50
2021/11/02 12:18:40;;;;;;;14.10;8.38;;;9.90;99.90;;;;;;4973088;28;20030;-54
2021/11/02 12:21:07;;;;;;;13.32;7.70;;;10.00;99.90;;;;;;4972472;28;20030;-53
2021/11/02 12:23:40;;;;;;;12.48;7.80;;;10.10;99.90;;;;;;4972193;28;20034;-51
2021/11/02 12:26:08;;;;;;;13.13;8.68;;;10.10;99.90;;;;;;4971993;28;20082;-53
2021/11/02 12:28:37;;;;;;;10.02;6.97;;;10.10;99.90;;;;;;4969743;28;20522;-52
2021/11/02 12:31:07;;;;;;;10.60;6.85;;;10.10;99.90;;;;;;4970804;28;20086;-52
2021/11/02 12:33:35;;;;;;;10.35;6.15;;;10.10;99.90;;;;;;4971780;28;20423;-53
2021/11/02 12:36:05;;;;;;;9.25;6.97;;;10.00;99.90;;;;;;4976266;28;20384;-48
2021/11/02 12:38:38;;;;;;;10.38;7.55;;;10.10;99.90;;;;;;4966372;28;20438;-54
2021/11/02 12:41:18;;;;;;;10.57;6.88;;;10.00;99.90;;;;;;4965704;28;20519;-52
2021/11/02 12:43:45;;;;;;;10.43;7.22;;;10.00;99.90;;;;;;4970986;28;20074;-50
2021/11/02 12:46:12;;;;;;;13.23;7.10;;;10.00;99.90;;;;;;4966680;28;20384;-49
2021/11/02 12:48:39;;;;;;;11.10;7.18;;;9.90;99.90;;;;;;4972039;28;20113;-48
2021/11/02 12:51:07;;;;;;;11.68;6.80;;;10.00;99.90;;;;;;4970191;28;20134;-51
2021/11/02 12:53:36;;;;;;;9.30;6.93;;;9.90;99.90;;;;;;4977088;28;20042;-52
2021/11/02 12:56:15;;;;;;;15.30;11.80;;;9.90;99.90;;;;;;4970466;28;20030;-50
2021/11/02 12:58:43;;;;;;;11.48;6.90;;;10.00;99.90;;;;;;4970789;28;20043;-52
2021/11/02 13:01:09;;;;;;;11.27;7.40;;;10.00;99.90;;;;;;4971267;28;20058;-51
2021/11/02 13:03:40;;;;;;;13.50;7.95;;;10.00;99.90;;;;;;4967497;28;20431;-52
2021/11/02 13:06:09;;;;;;;10.80;6.68;;;10.00;99.90;;;;;;4971263;28;20081;-50
2021/11/02 13:08:42;;;;;;;13.20;6.80;;;10.00;99.90;;;;;;4970591;28;20089;-50
2021/11/02 13:11:11;;;;;;;9.23;7.38;;;10.00;99.90;;;;;;4972391;28;20126;-51
2021/11/02 13:14:11;;;;;;;9.55;5.53;;;10.00;99.90;;;;;;4973497;28;20223;-50
2021/11/02 13:16:52;;;;;;;8.88;5.68;;;10.00;99.90;;;;;;4977998;28;20043;-52
2021/11/02 13:19:18;;;;;;;8.63;5.85;;;10.00;99.90;;;;;;4978262;28;20035;-52
2021/11/02 13:21:45;;;;;;;10.55;5.60;;;10.00;99.90;;;;;;4973497;28;20525;-50
2021/11/02 13:24:17;;;;;;;7.55;5.22;;;10.00;99.90;;;;;;4957056;28;20121;-51
2021/11/02 13:26:46;;;;;;;6.70;4.90;;;10.00;99.90;;;;;;4976245;28;20039;-48
2021/11/02 13:29:16;;;;;;;37.20;27.20;;;10.00;99.90;;;;;;4977565;28;20097;-49
2021/11/02 13:31:52;;;;;;;8.32;6.15;;;10.00;99.90;;;;;;4973077;28;20050;-51
2021/11/02 13:34:29;;;;;;;6.85;5.15;;;10.00;99.90;;;;;;4975593;28;20063;-48
2021/11/02 13:37:01;;;;;;;6.47;5.15;;;10.00;99.90;;;;;;4974332;28;20495;-48
2021/11/02 13:39:26;;;;;;;22.13;19.77;;;10.00;99.90;;;;;;4976485;28;20097;-48
2021/11/02 13:41:53;;;;;;;9.95;7.57;;;10.00;99.90;;;;;;4973958;28;20772;-48
2021/11/02 13:44:20;;;;;;;25.67;23.02;;;10.00;99.90;;;;;;4958105;28;20097;-48
2021/11/02 13:46:49;;;;;;;22.17;16.88;;;10.00;99.90;;;;;;4973687;28;20094;-53
2021/11/02 13:49:17;;;;;;;7.53;6.18;;;10.00;99.90;;;;;;4973262;28;20049;-48
2021/11/02 13:51:43;;;;;;;8.25;6.47;;;10.00;99.90;;;;;;4974643;28;20499;-50
2021/11/02 13:54:09;;;;;;;8.80;6.80;;;10.00;99.90;;;;;;4974384;28;20043;-49
2021/11/02 13:56:41;;;;;;;7.95;7.15;;;10.00;99.90;;;;;;4966360;28;20039;-48
2021/11/02 13:59:08;;;;;;;6.45;4.82;;;10.00;99.90;;;;;;4955993;28;20514;-51
2021/11/02 14:01:36;;;;;;;11.30;8.63;;;9.90;99.90;;;;;;4965541;28;20062;-48
2021/11/02 14:04:32;;;;;;;7.10;5.10;;;9.90;99.90;;;;;;4968238;28;20519;-50
2021/11/02 14:07:07;;;;;;;8.77;5.97;;;9.90;99.90;;;;;;4967693;28;20450;-48
2021/11/02 14:09:44;;;;;;;8.55;5.88;;;9.90;99.90;;;;;;4963768;28;20118;-48
2021/11/02 14:12:39;;;;;;;8.35;5.82;;;9.80;99.90;;;;;;4966918;28;20407;-49
2021/11/02 14:15:10;;;;;;;13.70;7.97;;;9.90;99.90;;;;;;4963166;28;20027;-49
2021/11/02 14:17:43;;;;;;;14.07;12.38;;;9.80;99.90;;;;;;4963639;28;20054;-48
2021/11/02 14:20:36;;;;;;;14.60;11.98;;;9.80;99.90;;;;;;4968918;28;20412;-49
2021/11/02 14:23:02;;;;;;;;;;;9.80;99.90;;;;;;4963567;28;20038;-49
2021/11/02 14:25:39;;;;;;;14.25;10.88;;;9.80;99.90;;;;;;4962399;28;19918;-52
2021/11/02 14:28:06;;;;;;;25.42;22.73;;;9.70;99.90;;;;;;4960465;28;20352;-51
2021/11/02 14:30:32;;;;;;;39.25;35.00;;;9.80;99.90;;;;;;4965462;28;20050;-48
2021/11/02 14:33:04;;;;;;;64.63;57.30;;;9.80;99.90;;;;;;4964931;28;20503;-51
2021/11/02 14:35:38;;;;;;;25.73;21.77;;;9.80;99.90;;;;;;4962418;28;20522;-51
2021/11/02 14:38:07;;;;;;;19.10;14.93;;;9.70;99.90;;;;;;4959208;28;20050;-50
2021/11/02 14:40:34;;;;;;;22.02;18.42;;;9.80;99.90;;;;;;4962261;28;20043;-48
2021/11/02 14:43:21;;;;;;;11.68;9.70;;;9.80;99.90;;;;;;4963696;28;20050;-51
2021/11/02 14:45:50;;;;;;;8.70;6.60;;;9.80;99.90;;;;;;4964652;28;20059;-49
2021/11/02 14:48:25;;;;;;;10.60;8.52;;;9.80;99.90;;;;;;4971058;28;20053;-49
2021/11/02 14:50:51;;;;;;;11.25;7.07;;;9.80;99.90;;;;;;4966667;28;20403;-48
2021/11/02 14:53:27;;;;;;;15.45;8.68;;;9.70;99.90;;;;;;4963787;28;20042;-49
2021/11/02 14:56:01;;;;;;;12.70;7.65;;;9.70;99.90;;;;;;4968793;28;20042;-48
2021/11/02 14:58:38;;;;;;;12.05;6.55;;;9.70;99.90;;;;;;4971724;28;20035;-50
2021/11/02 15:01:26;;;;;;;8.52;6.38;;;9.70;99.90;;;;;;4972875;28;20039;-48
2021/11/02 15:04:00;;;;;;;11.40;7.13;;;9.70;99.90;;;;;;4973104;28;20049;-48
2021/11/02 15:06:27;;;;;;;10.02;6.82;;;9.70;99.90;;;;;;4968551;28;20041;-52
2021/11/02 15:08:53;;;;;;;10.00;7.20;;;9.70;99.90;;;;;;4966207;28;20031;-50
2021/11/02 15:11:19;;;;;;;11.18;7.80;;;9.70;99.90;;;;;;4973845;28;20120;-49
2021/11/02 15:13:50;;;;;;;11.77;7.20;;;9.60;99.90;;;;;;4970525;28;20035;-53
2021/11/02 15:16:17;;;;;;;16.37;7.50;;;9.70;99.90;;;;;;4968842;28;20031;-53
2021/11/02 15:18:45;;;;;;;11.63;6.72;;;9.60;99.90;;;;;;4971820;28;20566;-49
2021/11/02 15:21:17;;;;;;;10.77;8.32;;;9.60;99.90;;;;;;4969117;28;20034;-51
2021/11/02 15:23:48;;;;;;;10.75;8.00;;;9.60;99.90;;;;;;4967328;28;20106;-49
2021/11/02 15:26:15;;;;;;;11.83;8.00;;;9.50;99.90;;;;;;4970448;28;20100;-48
2021/11/02 15:28:47;;;;;;;10.23;7.00;;;9.60;99.90;;;;;;4952967;28;20294;-48
2021/11/02 15:31:14;;;;;;;12.32;7.53;;;9.50;99.90;;;;;;4966707;28;20038;-50
2021/11/02 15:33:42;;;;;;;10.68;7.68;;;9.50;99.90;;;;;;4967855;28;20035;-53
2021/11/02 15:36:13;;;;;;;10.05;7.40;;;9.50;99.90;;;;;;4953877;28;20050;-53
2021/11/02 15:38:39;;;;;;;12.00;7.93;;;9.50;99.90;;;;;;4960457;28;20043;-52
2021/11/02 15:41:22;;;;;;;15.07;9.00;;;9.50;99.90;;;;;;4965589;28;20061;-51
2021/11/02 15:44:00;;;;;;;14.30;8.55;;;9.50;99.90;;;;;;4961691;28;20038;-52
2021/11/02 15:46:35;;;;;;;12.82;8.20;;;9.40;99.90;;;;;;4959468;28;20062;-52
2021/11/02 15:49:03;;;;;;;17.30;8.98;;;9.40;99.90;;;;;;4961899;28;20399;-53
2021/11/02 15:51:37;;;;;;;14.10;10.20;;;9.40;99.90;;;;;;4952237;28;20054;-48
2021/11/02 15:54:15;;;;;;;18.08;11.40;;;9.40;99.90;;;;;;4964392;28;20089;-52
2021/11/02 15:56:42;;;;;;;12.85;9.35;;;9.10;99.90;;;;;;4970802;28;20045;-52
2021/11/02 15:59:09;;;;;;;14.15;9.32;;;9.40;99.90;;;;;;4961980;28;20110;-51
2021/11/02 16:01:39;;;;;;;14.35;9.00;;;9.40;99.90;;;;;;4966019;28;20490;-51
2021/11/02 16:04:18;;;;;;;15.93;8.73;;;9.40;99.90;;;;;;4969085;28;20105;-51
2021/11/02 16:06:59;;;;;;;11.88;7.72;;;9.30;99.90;;;;;;4971343;28;20054;-52
2021/11/02 16:09:44;;;;;;;12.35;7.97;;;9.30;99.90;;;;;;4962243;28;20053;-54
2021/11/02 16:12:20;;;;;;;16.20;10.05;;;9.30;99.90;;;;;;4954237;28;20460;-50
2021/11/02 16:15:06;;;;;;;14.23;8.80;;;9.30;99.90;;;;;;4962080;28;20047;-53
2021/11/02 16:17:54;;;;;;;12.07;7.93;;;9.20;99.90;;;;;;4976238;28;20593;-50
2021/11/02 16:20:23;;;;;;;14.05;8.80;;;9.20;99.90;;;;;;4965216;28;20042;-52
2021/11/02 16:22:57;;;;;;;10.43;7.80;;;9.20;99.90;;;;;;4968393;28;20053;-52
2021/11/02 16:25:25;;;;;;;10.77;7.93;;;9.20;99.90;;;;;;4965292;28;20506;-53
2021/11/02 16:27:53;;;;;;;10.65;7.60;;;9.20;99.90;;;;;;4963077;28;20069;-50
2021/11/02 16:30:21;;;;;;;11.63;7.97;;;9.20;99.90;;;;;;4968284;28;20034;-49
2021/11/02 16:32:49;;;;;;;10.43;7.55;;;9.20;99.90;;;;;;4968365;28;20039;-52
2021/11/02 16:35:36;;;;;;;12.15;8.60;;;9.20;99.90;;;;;;4968076;28;20042;-52
2021/11/02 16:38:17;;;;;;;10.63;7.93;;;9.20;99.90;;;;;;4960804;28;20340;-52
2021/11/02 16:40:45;;;;;;;10.70;8.07;;;9.20;99.90;;;;;;4968259;28;20213;-53
2021/11/02 16:43:11;;;;;;;16.50;12.00;;;9.20;99.90;;;;;;4970222;28;20384;-53
2021/11/02 16:45:37;;;;;;;11.90;7.43;;;9.20;99.90;;;;;;4968618;28;20039;-52
2021/11/02 16:48:08;;;;;;;12.70;8.15;;;9.20;99.90;;;;;;4963218;28;20414;-48
2021/11/02 16:50:37;;;;;;;11.70;7.50;;;9.10;99.90;;;;;;4963831;28;20488;-51
2021/11/02 16:53:16;;;;;;;13.13;7.85;;;9.10;99.90;;;;;;4970491;28;20305;-52
2021/11/02 16:55:44;;;;;;;10.57;7.70;;;9.10;99.90;;;;;;4972055;28;20038;-51
2021/11/02 16:58:20;;;;;;;14.63;9.27;;;9.10;99.90;;;;;;4967260;28;20027;-52
2021/11/02 17:00:47;;;;;;;15.43;10.77;;;9.10;99.90;;;;;;4968419;28;20054;-53
2021/11/02 17:03:20;;;;;;;15.00;12.30;;;9.10;99.90;;;;;;4968904;28;20035;-49
2021/11/02 17:05:47;;;;;;;14.90;11.43;;;9.10;99.90;;;;;;4968231;28;20050;-51
2021/11/02 17:08:14;;;;;;;15.93;10.73;;;9.10;99.90;;;;;;4971694;28;20042;-52
2021/11/02 17:10:50;;;;;;;16.58;10.50;;;9.10;99.90;;;;;;4950915;28;20047;-51
2021/11/02 17:13:26;;;;;;;14.18;11.18;;;9.20;99.90;;;;;;4968542;28;20050;-52
2021/11/02 17:16:01;;;;;;;15.80;8.32;;;9.20;99.90;;;;;;4968606;28;20081;-52
2021/11/02 17:18:52;;;;;;;14.30;8.80;;;9.20;99.90;;;;;;4958467;28;20036;-51
2021/11/02 17:21:20;;;;;;;13.75;9.27;;;9.10;99.90;;;;;;4953644;28;20114;-52
2021/11/02 17:23:47;;;;;;;15.05;10.05;;;9.10;99.90;;;;;;4956628;28;20030;-50
2021/11/02 17:26:14;;;;;;;25.00;17.90;;;9.10;99.90;;;;;;4971584;28;20039;-52
2021/11/02 17:28:43;;;;;;;17.52;13.18;;;9.10;99.90;;;;;;4967564;28;20031;-52
2021/11/02 17:31:09;;;;;;;22.55;16.27;;;9.10;99.90;;;;;;4964584;28;20039;-52
2021/11/02 17:33:38;;;;;;;19.98;11.85;;;9.10;99.90;;;;;;4967348;28;20058;-53
2021/11/02 17:36:06;;;;;;;15.82;11.45;;;9.10;99.90;;;;;;4963378;28;20037;-49
2021/11/02 17:38:36;;;;;;;20.38;12.52;;;9.10;99.90;;;;;;4963965;28;20325;-49
2021/11/02 17:41:03;;;;;;;19.75;13.95;;;9.10;99.90;;;;;;4964612;28;20047;-49
2021/11/02 17:43:31;;;;;;;17.27;12.35;;;9.10;99.90;;;;;;4966535;28;20050;-52
2021/11/02 17:45:57;;;;;;;16.67;11.45;;;9.10;99.90;;;;;;4956399;28;20057;-50
2021/11/02 17:48:23;;;;;;;19.10;13.05;;;9.00;99.90;;;;;;4955259;28;21340;-49
2021/11/02 17:50:49;;;;;;;18.60;13.00;;;9.00;99.90;;;;;;4961985;28;20046;-50
2021/11/02 17:53:15;;;;;;;21.27;13.77;;;9.00;99.90;;;;;;4964167;28;20042;-50
2021/11/02 17:55:43;;;;;;;20.10;13.32;;;9.00;99.90;;;;;;4966899;28;20050;-52
2021/11/02 17:58:09;;;;;;;17.15;11.95;;;9.00;99.90;;;;;;4964358;28;20070;-52